KGEG

Spokane International Airport

Spokane, Washington, USA
METAR KGEG 151853Z 28008KT 1/4SM R21/2000V2600FT +SN FZFG VV005 M03/M03 A3012 RMK AO2 SLP226 SNINCR 1/1 P0007 T10281028
Observed Flight Rules
Dec-15 @ 18:53 UTC (an hour ago) Instrument Flight Rules
Wind Visibility Clouds Conditions
280° at 8 knots 1/4 miles
  • Vertical visibility at 500' AGL
  • Heavy Snow
  • Freezing
  • Fog
Temperatures Readings Precipitation
Current -3°C / 27°F
Dewpoint -3°C / 27°F
Humidity 100%
Altimeter 30.12" Hg
Pressure 1022.6 hPa
Elevation 735
Current Rain 0.07
Snow Depth 1
METAR KGEG 151853Z 28008KT 1/4SM R21/2000V2600FT +SN FZFG VV005 M03/M03 A3012 RMK AO2 SLP226 SNINCR 1/1 P0007 T10281028
Observed Flight Rules
Dec-15 @ 18:53 UTC
(an hour ago)
LIFR
Wind Visibility
280° at 8 knots 1/4 miles
Clouds
  • Vertical visibility at 500' AGL
Conditions
  • Heavy Snow
  • Freezing
  • Fog
Temperature Dewpoint
-3°C / 27°F -3°C / 27°F
Humidity Altimeter Pressure
100% 30.12" Hg 1022.6 hPa
Current Rain Snow Depth
0.07 1